Time;durP1;ratioP1;P1;durP2;ratioP2;P2;SDS_P1;SDS_P2;PMS_P1;PMS_P2;Temp;Humidity;BMP_temperature;BMP_pressure;BME280_temperature;BME280_humidity;BME280_pressure;Samples;Min_cycle;Max_cycle;Signal;HPM_P1;HPM_P2
2022/03/25 00:02:13;;;;;;;22.03;18.67;;;;;;;;;;5054371;28;20184;-53
2022/03/25 00:04:42;;;;;;;23.40;19.40;;;;;;;;;;5056140;28;20180;-54
2022/03/25 00:07:08;;;;;;;21.40;18.57;;;;;;;;;;5060895;28;20223;-53
2022/03/25 00:09:35;;;;;;;24.27;20.40;;;;;;;;;;5077572;28;20187;-54
2022/03/25 00:12:01;;;;;;;21.37;19.03;;;;;;;;;;5081786;28;20267;-53
2022/03/25 00:14:27;;;;;;;21.93;18.73;;;;;;;;;;5065528;28;20230;-54
2022/03/25 00:16:54;;;;;;;22.37;19.97;;;;;;;;;;5082537;28;20175;-52
2022/03/25 00:19:20;;;;;;;21.73;18.33;;;;;;;;;;5101938;28;20187;-54
2022/03/25 00:21:46;;;;;;;20.43;18.23;;;;;;;;;;5083465;28;20190;-54
2022/03/25 00:24:12;;;;;;;22.63;19.90;;;;;;;;;;5075135;28;20185;-54
2022/03/25 00:26:38;;;;;;;21.97;19.60;;;;;;;;;;5062002;28;20448;-54
2022/03/25 00:29:04;;;;;;;22.30;19.57;;;;;;;;;;5048921;28;20686;-54
2022/03/25 00:31:31;;;;;;;22.53;18.27;;;;;;;;;;5074973;28;20566;-52
2022/03/25 00:33:57;;;;;;;21.97;19.30;;;;;;;;;;5088487;28;20176;-52
2022/03/25 00:36:23;;;;;;;21.40;18.43;;;;;;;;;;5082578;28;20204;-53
2022/03/25 00:38:49;;;;;;;20.97;18.47;;;;;;;;;;5077720;28;20239;-53
2022/03/25 00:41:16;;;;;;;20.70;18.50;;;;;;;;;;5064776;28;20176;-55
2022/03/25 00:43:46;;;;;;;23.80;19.17;;;;;;;;;;5084879;28;20630;-52
2022/03/25 00:46:13;;;;;;;20.50;17.50;;;;;;;;;;5083700;28;20226;-53
2022/03/25 00:48:40;;;;;;;21.67;18.13;;;;;;;;;;5068725;28;20651;-52
2022/03/25 00:51:06;;;;;;;22.90;19.30;;;;;;;;;;5078419;28;20533;-54
2022/03/25 00:53:33;;;;;;;21.30;18.93;;;;;;;;;;5068221;28;20529;-53
2022/03/25 00:56:03;;;;;;;20.80;18.10;;;;;;;;;;5051015;28;20208;-52
2022/03/25 00:58:29;;;;;;;23.63;18.77;;;;;;;;;;5074070;28;20195;-53
2022/03/25 01:00:56;;;;;;;22.57;19.47;;;;;;;;;;5052302;28;20188;-53
2022/03/25 01:03:22;;;;;;;19.97;17.83;;;;;;;;;;5091772;28;20172;-52
2022/03/25 01:05:49;;;;;;;20.33;17.83;;;;;;;;;;5089234;28;20179;-54
2022/03/25 01:08:15;;;;;;;21.90;18.43;;;;;;;;;;5062792;28;20246;-53
2022/03/25 01:10:43;;;;;;;20.80;18.10;;;;;;;;;;5064339;28;20215;-54
2022/03/25 01:13:10;;;;;;;20.37;17.20;;;;;;;;;;5062612;28;20242;-52
2022/03/25 01:15:37;;;;;;;22.03;19.10;;;;;;;;;;5062475;28;20235;-52
2022/03/25 01:18:03;;;;;;;22.27;18.87;;;;;;;;;;5077279;28;20173;-53
2022/03/25 01:20:30;;;;;;;19.53;17.43;;;;;;;;;;5073753;28;20189;-52
2022/03/25 01:22:56;;;;;;;22.07;18.17;;;;;;;;;;5066324;28;20184;-52
2022/03/25 01:25:23;;;;;;;20.07;17.83;;;;;;;;;;5090512;28;20187;-53
2022/03/25 01:27:49;;;;;;;21.07;17.47;;;;;;;;;;5088925;28;20575;-53
2022/03/25 01:30:16;;;;;;;21.40;17.87;;;;;;;;;;5088104;28;20184;-53
2022/03/25 01:32:45;;;;;;;20.00;17.57;;;;;;;;;;5063879;28;20188;-53
2022/03/25 01:35:13;;;;;;;21.17;18.87;;;;;;;;;;5066541;28;20681;-53
2022/03/25 01:37:40;;;;;;;20.70;18.23;;;;;;;;;;5052270;28;20555;-53
2022/03/25 01:40:09;;;;;;;19.77;17.67;;;;;;;;;;5072300;28;20172;-54
2022/03/25 01:42:41;;;;;;;21.97;17.53;;;;;;;;;;5088610;28;20175;-54
2022/03/25 01:45:09;;;;;;;20.87;17.87;;;;;;;;;;5080564;28;20275;-53
2022/03/25 01:47:36;;;;;;;20.10;18.00;;;;;;;;;;5083911;28;20187;-53
2022/03/25 01:50:03;;;;;;;20.70;18.50;;;;;;;;;;5087942;28;20752;-55
2022/03/25 01:52:30;;;;;;;22.03;19.47;;;;;;;;;;5088175;28;20244;-54
2022/03/25 01:55:13;;;;;;;23.13;17.93;;;;;;;;;;5083124;28;20565;-55
2022/03/25 01:57:39;;;;;;;20.60;18.37;;;;;;;;;;5081335;28;20222;-54
2022/03/25 02:00:06;;;;;;;22.13;19.70;;;;;;;;;;5054700;28;20262;-54
2022/03/25 02:02:32;;;;;;;20.57;18.23;;;;;;;;;;5078761;28;20184;-53
2022/03/25 02:04:59;;;;;;;20.40;18.30;;;;;;;;;;5084930;28;20188;-52
2022/03/25 02:07:26;;;;;;;21.57;19.20;;;;;;;;;;5080415;28;20184;-53
2022/03/25 02:09:52;;;;;;;21.67;17.63;;;;;;;;;;5072240;28;20340;-53
2022/03/25 02:12:18;;;;;;;20.63;18.43;;;;;;;;;;5068541;28;20298;-54
2022/03/25 02:14:45;;;;;;;21.50;17.43;;;;;;;;;;5059324;28;20219;-53
2022/03/25 02:17:11;;;;;;;26.90;20.13;;;;;;;;;;5060096;28;20212;-55
2022/03/25 02:19:37;;;;;;;20.00;17.90;;;;;;;;;;5056044;28;20548;-53
2022/03/25 02:22:04;;;;;;;20.33;18.07;;;;;;;;;;5065445;28;20263;-52
2022/03/25 02:24:30;;;;;;;19.07;17.03;;;;;;;;;;5067750;28;20554;-52
2022/03/25 02:26:57;;;;;;;19.40;17.40;;;;;;;;;;5066513;28;20189;-52
2022/03/25 02:29:24;;;;;;;20.70;18.30;;;;;;;;;;5058552;28;20180;-53
2022/03/25 02:31:50;;;;;;;21.33;18.67;;;;;;;;;;5061511;28;20192;-53
2022/03/25 02:34:16;;;;;;;20.53;18.33;;;;;;;;;;5068865;28;20662;-51
2022/03/25 02:36:45;;;;;;;20.60;17.73;;;;;;;;;;5077951;28;20817;-51
2022/03/25 02:39:12;;;;;;;19.50;17.33;;;;;;;;;;5077449;28;20175;-51
2022/03/25 02:41:38;;;;;;;19.80;17.70;;;;;;;;;;5080291;28;20974;-52
2022/03/25 02:44:04;;;;;;;20.93;18.70;;;;;;;;;;5086646;28;20179;-52
2022/03/25 02:46:31;;;;;;;21.00;18.00;;;;;;;;;;5084213;28;20196;-52
2022/03/25 02:48:57;;;;;;;24.40;18.83;;;;;;;;;;5049721;28;20196;-52
2022/03/25 02:51:24;;;;;;;20.43;18.10;;;;;;;;;;5057607;28;20191;-53
2022/03/25 02:53:50;;;;;;;21.53;19.23;;;;;;;;;;5067945;28;20597;-53
2022/03/25 02:56:18;;;;;;;21.13;18.83;;;;;;;;;;5085917;28;20302;-52
2022/03/25 02:58:44;;;;;;;20.43;18.00;;;;;;;;;;5068820;28;20228;-52
2022/03/25 03:01:10;;;;;;;20.83;18.10;;;;;;;;;;5086208;28;20190;-53
2022/03/25 03:03:37;;;;;;;20.40;17.87;;;;;;;;;;5063304;28;20241;-52
2022/03/25 03:06:03;;;;;;;20.70;17.37;;;;;;;;;;5069782;28;20280;-51
2022/03/25 03:08:30;;;;;;;22.17;18.20;;;;;;;;;;5089000;28;20183;-52
2022/03/25 03:10:56;;;;;;;22.93;19.33;;;;;;;;;;5086665;28;20213;-51
2022/03/25 03:13:23;;;;;;;19.60;17.50;;;;;;;;;;5069381;28;20192;-52
2022/03/25 03:15:50;;;;;;;24.70;17.10;;;;;;;;;;5052289;28;20207;-52
2022/03/25 03:18:16;;;;;;;19.67;17.03;;;;;;;;;;5062896;28;20173;-52
2022/03/25 03:20:43;;;;;;;20.47;17.23;;;;;;;;;;5073753;28;20218;-52
2022/03/25 03:23:09;;;;;;;21.30;17.37;;;;;;;;;;5077292;28;20233;-52
2022/03/25 03:25:36;;;;;;;20.80;16.60;;;;;;;;;;5078810;28;20230;-52
2022/03/25 03:28:03;;;;;;;23.03;18.30;;;;;;;;;;5063295;28;20284;-51
2022/03/25 03:30:29;;;;;;;22.77;17.53;;;;;;;;;;5079301;28;20199;-52
2022/03/25 03:32:57;;;;;;;19.47;17.47;;;;;;;;;;5056360;28;20311;-52
2022/03/25 03:35:26;;;;;;;20.50;17.10;;;;;;;;;;5077796;28;20204;-52
2022/03/25 03:37:53;;;;;;;20.40;17.47;;;;;;;;;;5060493;28;20185;-52
2022/03/25 03:40:19;;;;;;;21.93;18.47;;;;;;;;;;5051310;28;20188;-52
2022/03/25 03:42:45;;;;;;;19.50;17.37;;;;;;;;;;5086133;28;20176;-53
2022/03/25 03:45:12;;;;;;;21.20;18.40;;;;;;;;;;5066194;28;20427;-52
2022/03/25 03:47:40;;;;;;;23.40;18.07;;;;;;;;;;5074035;28;20731;-53
2022/03/25 03:50:07;;;;;;;20.90;17.77;;;;;;;;;;5071263;28;20648;-52
2022/03/25 03:52:34;;;;;;;23.07;17.93;;;;;;;;;;5079113;28;20187;-54
2022/03/25 03:55:00;;;;;;;20.47;16.63;;;;;;;;;;5085612;28;20212;-52
2022/03/25 03:57:26;;;;;;;19.93;17.67;;;;;;;;;;5077130;28;20199;-53
2022/03/25 03:59:53;;;;;;;21.43;18.37;;;;;;;;;;5086829;28;20184;-52
2022/03/25 04:02:19;;;;;;;22.40;17.63;;;;;;;;;;5082550;28;20187;-53
2022/03/25 04:04:46;;;;;;;20.50;17.60;;;;;;;;;;5068983;28;20206;-52
2022/03/25 04:07:12;;;;;;;20.43;17.87;;;;;;;;;;5081910;28;20191;-53
2022/03/25 04:09:39;;;;;;;22.40;16.90;;;;;;;;;;5078360;28;20625;-52
2022/03/25 04:12:06;;;;;;;20.17;17.53;;;;;;;;;;5068734;28;20533;-52
2022/03/25 04:14:32;;;;;;;20.80;17.67;;;;;;;;;;5090891;28;20322;-51
2022/03/25 04:16:58;;;;;;;23.67;21.00;;;;;;;;;;5085400;28;20215;-53
2022/03/25 04:19:24;;;;;;;21.60;18.27;;;;;;;;;;5072352;28;20180;-53
2022/03/25 04:21:51;;;;;;;19.70;16.90;;;;;;;;;;5084138;28;20783;-53
2022/03/25 04:24:17;;;;;;;21.23;17.87;;;;;;;;;;5086996;28;20176;-52
2022/03/25 04:26:43;;;;;;;20.30;17.60;;;;;;;;;;5054036;28;20291;-53
2022/03/25 04:29:10;;;;;;;25.77;18.17;;;;;;;;;;5068041;28;20237;-52
2022/03/25 04:31:36;;;;;;;24.40;21.77;;;;;;;;;;5080522;28;20262;-52
2022/03/25 04:34:03;;;;;;;21.70;17.43;;;;;;;;;;5053178;28;20538;-52
2022/03/25 04:36:30;;;;;;;23.37;18.13;;;;;;;;;;5059560;28;20728;-53
2022/03/25 04:38:56;;;;;;;21.00;17.93;;;;;;;;;;5071520;28;20186;-52
2022/03/25 04:41:23;;;;;;;19.83;16.80;;;;;;;;;;5088413;28;20286;-52
2022/03/25 04:43:51;;;;;;;22.63;17.47;;;;;;;;;;5099359;28;20179;-53
2022/03/25 04:46:17;;;;;;;20.57;18.07;;;;;;;;;;5067116;28;20188;-52
2022/03/25 04:48:43;;;;;;;21.43;16.93;;;;;;;;;;5081984;28;20647;-52
2022/03/25 04:51:10;;;;;;;19.93;17.37;;;;;;;;;;5073882;28;20193;-54
2022/03/25 04:53:37;;;;;;;22.70;17.43;;;;;;;;;;5060414;28;20183;-52
2022/03/25 04:56:04;;;;;;;22.47;18.17;;;;;;;;;;5081757;28;20244;-52
2022/03/25 04:58:30;;;;;;;23.20;19.07;;;;;;;;;;5071704;28;20211;-52
2022/03/25 05:00:56;;;;;;;21.37;18.03;;;;;;;;;;5072075;28;20188;-53
2022/03/25 05:03:22;;;;;;;21.00;17.67;;;;;;;;;;5089567;28;20255;-53
2022/03/25 05:05:49;;;;;;;21.33;17.63;;;;;;;;;;5074060;28;20532;-52
2022/03/25 05:08:15;;;;;;;21.37;17.97;;;;;;;;;;5069824;28;20549;-53
2022/03/25 05:10:41;;;;;;;20.37;17.37;;;;;;;;;;5091979;28;20695;-52
2022/03/25 05:13:11;;;;;;;20.67;17.37;;;;;;;;;;5085456;28;20548;-53
2022/03/25 05:15:37;;;;;;;27.43;18.73;;;;;;;;;;5090313;28;20601;-52
2022/03/25 05:18:04;;;;;;;21.57;17.77;;;;;;;;;;5084713;28;20540;-51
2022/03/25 05:20:30;;;;;;;20.97;17.40;;;;;;;;;;5089747;28;20198;-52
2022/03/25 05:22:56;;;;;;;20.13;16.93;;;;;;;;;;5063137;28;20190;-52
2022/03/25 05:25:23;;;;;;;22.70;18.53;;;;;;;;;;5084777;28;20673;-52
2022/03/25 05:27:51;;;;;;;23.10;18.20;;;;;;;;;;5086630;28;20198;-52
2022/03/25 05:30:19;;;;;;;21.50;17.50;;;;;;;;;;5081194;28;20636;-53
2022/03/25 05:32:45;;;;;;;21.23;17.57;;;;;;;;;;5070521;28;20183;-54
2022/03/25 05:35:11;;;;;;;22.57;17.63;;;;;;;;;;5082999;28;20246;-53
2022/03/25 05:37:38;;;;;;;22.73;19.00;;;;;;;;;;5087789;28;20180;-52
2022/03/25 05:40:06;;;;;;;23.00;18.63;;;;;;;;;;5089437;28;20564;-54
2022/03/25 05:42:33;;;;;;;19.80;16.33;;;;;;;;;;5075563;28;20234;-53
2022/03/25 05:44:59;;;;;;;23.83;18.80;;;;;;;;;;5088295;28;20195;-52
2022/03/25 05:47:25;;;;;;;22.57;18.77;;;;;;;;;;5070657;28;20187;-52
2022/03/25 05:49:52;;;;;;;21.37;18.60;;;;;;;;;;5087985;28;20188;-53
2022/03/25 05:52:18;;;;;;;23.03;18.83;;;;;;;;;;5084371;28;20188;-53
2022/03/25 05:54:45;;;;;;;21.63;17.13;;;;;;;;;;5097666;28;20199;-53
2022/03/25 05:57:11;;;;;;;21.70;18.07;;;;;;;;;;5083121;28;20264;-53
2022/03/25 05:59:38;;;;;;;20.23;17.43;;;;;;;;;;5071410;28;20630;-52
2022/03/25 06:02:04;;;;;;;22.40;18.33;;;;;;;;;;5055361;28;20642;-52
2022/03/25 06:04:30;;;;;;;23.07;18.57;;;;;;;;;;5089527;28;20607;-52
2022/03/25 06:06:56;;;;;;;24.00;18.57;;;;;;;;;;5089927;28;20687;-54
2022/03/25 06:09:22;;;;;;;23.37;18.30;;;;;;;;;;5087561;28;20190;-53
2022/03/25 06:11:49;;;;;;;22.60;18.23;;;;;;;;;;5077987;28;20573;-52
2022/03/25 06:14:15;;;;;;;21.67;18.23;;;;;;;;;;5083076;28;20215;-54
2022/03/25 06:16:41;;;;;;;21.23;17.83;;;;;;;;;;5101032;28;20203;-53
2022/03/25 06:19:07;;;;;;;23.53;18.07;;;;;;;;;;5089144;28;20247;-52
2022/03/25 06:21:34;;;;;;;22.30;18.63;;;;;;;;;;5087469;28;20171;-52
2022/03/25 06:24:00;;;;;;;21.70;17.57;;;;;;;;;;5087829;28;20174;-52
2022/03/25 06:26:27;;;;;;;24.97;18.53;;;;;;;;;;5089374;28;20167;-54
2022/03/25 06:28:54;;;;;;;23.13;17.53;;;;;;;;;;5071970;28;20219;-54
2022/03/25 06:31:20;;;;;;;21.60;18.30;;;;;;;;;;5071574;28;20552;-54
2022/03/25 06:33:46;;;;;;;25.33;19.20;;;;;;;;;;5092982;28;20200;-52
2022/03/25 06:36:13;;;;;;;22.00;18.60;;;;;;;;;;5110724;28;20195;-53
2022/03/25 06:38:40;;;;;;;24.37;19.10;;;;;;;;;;5076386;28;20262;-52
2022/03/25 06:41:07;;;;;;;25.03;19.30;;;;;;;;;;5071883;28;20184;-53
2022/03/25 06:43:34;;;;;;;25.97;18.63;;;;;;;;;;5085610;28;20287;-52
2022/03/25 06:46:00;;;;;;;25.80;19.57;;;;;;;;;;5054939;28;20203;-52
2022/03/25 06:48:27;;;;;;;21.07;18.10;;;;;;;;;;5069955;28;20242;-53
2022/03/25 06:50:53;;;;;;;23.07;18.90;;;;;;;;;;5089732;28;20199;-56
2022/03/25 06:53:20;;;;;;;22.63;17.90;;;;;;;;;;5070354;28;20313;-52
2022/03/25 06:55:47;;;;;;;22.70;19.50;;;;;;;;;;5071749;28;20206;-52
2022/03/25 06:58:14;;;;;;;22.57;18.53;;;;;;;;;;5054835;28;20287;-53
2022/03/25 07:00:41;;;;;;;22.83;19.87;;;;;;;;;;5092443;28;20549;-52
2022/03/25 07:03:07;;;;;;;25.93;19.40;;;;;;;;;;5074888;28;20176;-53
2022/03/25 07:05:36;;;;;;;23.23;19.17;;;;;;;;;;5090005;28;20172;-51
2022/03/25 07:08:03;;;;;;;21.87;19.00;;;;;;;;;;5088979;28;20452;-52
2022/03/25 07:10:30;;;;;;;25.17;20.67;;;;;;;;;;5090154;28;20564;-52
2022/03/25 07:12:57;;;;;;;26.23;20.70;;;;;;;;;;5070889;28;20195;-54
2022/03/25 07:15:24;;;;;;;22.83;17.97;;;;;;;;;;5076120;28;20263;-53
2022/03/25 07:17:52;;;;;;;23.53;18.33;;;;;;;;;;5062446;28;20188;-53
2022/03/25 07:20:19;;;;;;;24.70;19.87;;;;;;;;;;5071615;28;20187;-52
2022/03/25 07:22:46;;;;;;;25.17;18.67;;;;;;;;;;5089728;28;20179;-53
2022/03/25 07:25:12;;;;;;;23.40;18.70;;;;;;;;;;5089645;28;20168;-53
2022/03/25 07:27:39;;;;;;;23.37;19.67;;;;;;;;;;5070630;28;20546;-53
2022/03/25 07:30:06;;;;;;;25.67;19.90;;;;;;;;;;5071218;28;20232;-53
2022/03/25 07:32:36;;;;;;;27.37;20.70;;;;;;;;;;5070785;28;20195;-52
2022/03/25 07:35:02;;;;;;;24.07;20.00;;;;;;;;;;5070300;28;20287;-54
2022/03/25 07:37:29;;;;;;;23.60;19.60;;;;;;;;;;5077002;28;20171;-53
2022/03/25 07:39:55;;;;;;;24.70;19.10;;;;;;;;;;5078229;28;20635;-52
2022/03/25 07:42:22;;;;;;;25.57;20.50;;;;;;;;;;5070892;28;20290;-53
2022/03/25 07:44:49;;;;;;;26.20;20.37;;;;;;;;;;5070947;28;20184;-53
2022/03/25 07:47:16;;;;;;;25.80;20.07;;;;;;;;;;5058431;28;20188;-52
2022/03/25 07:49:43;;;;;;;23.17;20.00;;;;;;;;;;5052630;28;20551;-53
2022/03/25 07:52:10;;;;;;;23.87;19.57;;;;;;;;;;5067307;28;20180;-53
2022/03/25 07:54:37;;;;;;;24.37;19.70;;;;;;;;;;5050829;28;20180;-52
2022/03/25 07:57:04;;;;;;;26.40;20.47;;;;;;;;;;5056645;28;20203;-53
2022/03/25 07:59:30;;;;;;;28.43;21.47;;;;;;;;;;5091272;28;20214;-53
2022/03/25 08:01:56;;;;;;;27.53;22.07;;;;;;;;;;5085260;28;20643;-52
2022/03/25 08:04:24;;;;;;;27.87;20.43;;;;;;;;;;5087950;28;20171;-54
2022/03/25 08:06:50;;;;;;;27.20;22.27;;;;;;;;;;5098061;28;20176;-53
2022/03/25 08:09:17;;;;;;;26.13;21.13;;;;;;;;;;5088156;28;20571;-53
2022/03/25 08:11:45;;;;;;;30.43;22.73;;;;;;;;;;5070247;28;20698;-53
2022/03/25 08:14:12;;;;;;;29.47;22.47;;;;;;;;;;5088431;28;20552;-53
2022/03/25 08:16:38;;;;;;;30.00;23.17;;;;;;;;;;5093370;28;20212;-53
2022/03/25 08:19:08;;;;;;;30.27;23.07;;;;;;;;;;5049115;28;20187;-53
2022/03/25 08:21:34;;;;;;;26.23;20.83;;;;;;;;;;5067951;28;20171;-55
2022/03/25 08:29:30;;;;;;;31.73;23.23;;;;;;;;;;5088574;28;20278;-53
2022/03/25 08:31:56;;;;;;;30.57;22.30;;;;;;;;;;5070352;28;20258;-53
2022/03/25 08:34:23;;;;;;;31.37;22.53;;;;;;;;;;5069164;28;20176;-53
2022/03/25 08:36:50;;;;;;;29.20;22.27;;;;;;;;;;5070353;28;20187;-52
2022/03/25 08:39:16;;;;;;;33.37;22.73;;;;;;;;;;5087750;28;20176;-54
2022/03/25 08:41:43;;;;;;;29.13;22.57;;;;;;;;;;5091816;28;20261;-52
2022/03/25 08:44:10;;;;;;;30.90;22.30;;;;;;;;;;5100587;28;20176;-53
2022/03/25 08:46:36;;;;;;;36.50;23.67;;;;;;;;;;5087434;28;20686;-53
2022/03/25 08:49:03;;;;;;;31.23;23.27;;;;;;;;;;5068626;28;20180;-54
2022/03/25 08:51:29;;;;;;;29.87;21.43;;;;;;;;;;5089887;28;20172;-55
2022/03/25 08:53:56;;;;;;;31.63;22.77;;;;;;;;;;5086986;28;20186;-53
2022/03/25 08:56:24;;;;;;;32.60;22.60;;;;;;;;;;5087556;28;20215;-52
2022/03/25 08:58:54;;;;;;;31.53;22.60;;;;;;;;;;5075796;28;20179;-54
2022/03/25 09:01:20;;;;;;;28.50;22.73;;;;;;;;;;5067753;28;20179;-53
2022/03/25 09:03:46;;;;;;;32.70;23.63;;;;;;;;;;5073877;28;20698;-53
2022/03/25 09:06:12;;;;;;;31.53;22.70;;;;;;;;;;5094869;28;20819;-53
2022/03/25 09:08:38;;;;;;;35.57;23.30;;;;;;;;;;5070075;28;20221;-53
2022/03/25 09:11:05;;;;;;;30.37;22.17;;;;;;;;;;5088070;28;20192;-54
2022/03/25 09:13:32;;;;;;;30.57;21.60;;;;;;;;;;5068855;28;20188;-53
2022/03/25 09:15:58;;;;;;;30.73;22.90;;;;;;;;;;5095735;28;20224;-53
2022/03/25 09:18:24;;;;;;;32.40;24.00;;;;;;;;;;5086696;28;20176;-54
2022/03/25 09:20:50;;;;;;;30.80;23.03;;;;;;;;;;5069120;28;20211;-54
2022/03/25 09:23:17;;;;;;;28.90;21.53;;;;;;;;;;5072926;28;20513;-55
2022/03/25 09:25:43;;;;;;;34.93;24.20;;;;;;;;;;5091390;28;20619;-54
2022/03/25 09:28:10;;;;;;;29.23;22.60;;;;;;;;;;5086209;28;20497;-55
2022/03/25 09:30:36;;;;;;;29.30;22.77;;;;;;;;;;5073468;28;20562;-53
2022/03/25 09:33:02;;;;;;;34.27;23.93;;;;;;;;;;5090089;28;20258;-52
2022/03/25 09:35:29;;;;;;;31.57;23.43;;;;;;;;;;5091460;28;20283;-52
2022/03/25 09:37:55;;;;;;;28.90;22.30;;;;;;;;;;5090304;28;20290;-53
2022/03/25 09:40:23;;;;;;;28.27;24.03;;;;;;;;;;5053169;28;20181;-53
2022/03/25 09:42:53;;;;;;;28.80;22.60;;;;;;;;;;5047143;28;20299;-53
2022/03/25 09:45:21;;;;;;;29.23;22.57;;;;;;;;;;5092926;28;20237;-53
2022/03/25 09:47:47;;;;;;;30.00;22.27;;;;;;;;;;5078223;28;20252;-53
2022/03/25 09:50:17;;;;;;;26.97;21.80;;;;;;;;;;5091082;28;20250;-52
2022/03/25 09:52:44;;;;;;;32.57;24.43;;;;;;;;;;5091185;28;20195;-53
2022/03/25 09:55:11;;;;;;;28.63;21.47;;;;;;;;;;5090511;28;20207;-52
2022/03/25 09:57:38;;;;;;;27.67;20.53;;;;;;;;;;5068240;28;20203;-53
2022/03/25 10:00:05;;;;;;;25.67;19.60;;;;;;;;;;5073174;28;20176;-53
2022/03/25 10:02:31;;;;;;;23.20;18.60;;;;;;;;;;5090221;28;20180;-53
2022/03/25 10:04:57;;;;;;;26.50;20.00;;;;;;;;;;5093428;28;20195;-54
2022/03/25 10:07:25;;;;;;;23.17;18.37;;;;;;;;;;5072314;28;20184;-52
2022/03/25 10:10:09;;;;;;;24.90;19.10;;;;;;;;;;5090307;28;20198;-53
2022/03/25 10:12:36;;;;;;;27.40;19.83;;;;;;;;;;5070672;28;20187;-54
2022/03/25 10:15:29;;;;;;;21.87;17.57;;;;;;;;;;5086820;28;20220;-54
2022/03/25 10:17:56;;;;;;;21.97;16.90;;;;;;;;;;5086444;28;20772;-55
2022/03/25 10:20:26;;;;;;;24.60;17.70;;;;;;;;;;5091066;28;20757;-52
2022/03/25 10:23:00;;;;;;;24.80;17.67;;;;;;;;;;5090059;28;20183;-52
2022/03/25 10:25:35;;;;;;;26.67;18.53;;;;;;;;;;5090740;28;20191;-53
2022/03/25 10:28:02;;;;;;;24.43;18.13;;;;;;;;;;5090096;28;20649;-53
2022/03/25 10:30:36;;;;;;;21.20;17.17;;;;;;;;;;5090472;28;20195;-53
2022/03/25 10:33:12;;;;;;;23.67;16.83;;;;;;;;;;5089014;28;20178;-53
2022/03/25 10:36:08;;;;;;;22.30;15.43;;;;;;;;;;5072285;28;20199;-53
2022/03/25 10:38:45;;;;;;;23.23;16.43;;;;;;;;;;5049908;28;20187;-52
2022/03/25 10:41:12;;;;;;;26.73;17.17;;;;;;;;;;5090567;28;20179;-54
2022/03/25 10:43:51;;;;;;;19.83;15.00;;;;;;;;;;5051108;28;20246;-53
2022/03/25 10:46:31;;;;;;;20.00;14.73;;;;;;;;;;5062929;28;20180;-53
2022/03/25 10:48:58;;;;;;;21.23;15.77;;;;;;;;;;5062807;28;20176;-54
2022/03/25 10:51:24;;;;;;;19.27;15.07;;;;;;;;;;5076828;28;20183;-53
2022/03/25 10:53:59;;;;;;;23.30;15.83;;;;;;;;;;5069089;28;20179;-53
2022/03/25 10:56:26;;;;;;;21.63;15.83;;;;;;;;;;5071021;28;20245;-55
2022/03/25 10:58:57;;;;;;;21.53;15.23;;;;;;;;;;5071067;28;20179;-54
2022/03/25 11:01:24;;;;;;;19.63;14.80;;;;;;;;;;5051534;28;20177;-53
2022/03/25 11:03:51;;;;;;;22.60;15.13;;;;;;;;;;5089343;28;20176;-53
2022/03/25 11:06:18;;;;;;;22.17;16.03;;;;;;;;;;5072829;28;20539;-52
2022/03/25 11:08:45;;;;;;;20.17;15.40;;;;;;;;;;5089493;28;20236;-53
2022/03/25 11:11:12;;;;;;;21.77;14.90;;;;;;;;;;5074665;28;20294;-53
2022/03/25 11:13:38;;;;;;;20.60;15.33;;;;;;;;;;5088576;28;20667;-53
2022/03/25 11:16:08;;;;;;;21.93;14.63;;;;;;;;;;5078994;28;20194;-53
2022/03/25 11:18:36;;;;;;;22.67;14.87;;;;;;;;;;5088072;28;20683;-54
2022/03/25 11:21:04;;;;;;;21.90;14.83;;;;;;;;;;5073214;28;20236;-54
2022/03/25 11:23:44;;;;;;;24.40;16.33;;;;;;;;;;5072627;28;20562;-53
2022/03/25 11:26:11;;;;;;;22.53;15.60;;;;;;;;;;5089180;28;20186;-54
2022/03/25 11:28:38;;;;;;;20.20;15.23;;;;;;;;;;5088836;28;20271;-53
2022/03/25 11:31:07;;;;;;;19.57;14.40;;;;;;;;;;5088811;28;20179;-54
2022/03/25 11:33:53;;;;;;;17.27;14.07;;;;;;;;;;5068916;28;20207;-54
2022/03/25 11:36:19;;;;;;;24.20;15.43;;;;;;;;;;5089067;28;20211;-54
2022/03/25 11:38:46;;;;;;;19.80;13.97;;;;;;;;;;5088388;28;20662;-54
2022/03/25 11:41:30;;;;;;;18.10;13.43;;;;;;;;;;5087095;28;20612;-55
2022/03/25 11:44:14;;;;;;;20.77;14.67;;;;;;;;;;5088662;28;20671;-55
2022/03/25 11:47:04;;;;;;;20.77;14.43;;;;;;;;;;5069248;28;20256;-55
2022/03/25 11:49:36;;;;;;;18.10;13.83;;;;;;;;;;5037580;28;20200;-54
2022/03/25 11:52:18;;;;;;;17.93;13.70;;;;;;;;;;5085455;28;20233;-56
2022/03/25 11:54:44;;;;;;;19.87;13.13;;;;;;;;;;5070346;28;20179;-54
2022/03/25 11:57:24;;;;;;;16.47;12.90;;;;;;;;;;5089080;28;20727;-55
2022/03/25 11:59:55;;;;;;;21.13;12.83;;;;;;;;;;5088743;28;20270;-54
2022/03/25 12:02:24;;;;;;;21.17;13.40;;;;;;;;;;5054963;28;20240;-55
2022/03/25 12:04:51;;;;;;;18.63;14.40;;;;;;;;;;5103923;28;20178;-54
2022/03/25 12:07:17;;;;;;;22.80;12.93;;;;;;;;;;5079766;28;20245;-55
2022/03/25 12:09:46;;;;;;;23.70;14.43;;;;;;;;;;5070291;28;20168;-55
2022/03/25 12:12:13;;;;;;;20.90;12.73;;;;;;;;;;5088198;28;20233;-55
2022/03/25 12:14:58;;;;;;;16.13;13.63;;;;;;;;;;5087824;28;20218;-56
2022/03/25 12:17:25;;;;;;;15.60;12.53;;;;;;;;;;5067635;28;20171;-55
2022/03/25 12:19:54;;;;;;;19.63;13.10;;;;;;;;;;5101930;28;20197;-55
2022/03/25 12:22:23;;;;;;;17.83;12.93;;;;;;;;;;5072521;28;20241;-55
2022/03/25 12:24:53;;;;;;;16.93;12.33;;;;;;;;;;5088141;28;20700;-55
2022/03/25 12:27:19;;;;;;;18.47;13.30;;;;;;;;;;5053609;28;20707;-54
2022/03/25 12:29:54;;;;;;;19.93;11.50;;;;;;;;;;5088138;28;20176;-55
2022/03/25 12:32:22;;;;;;;15.27;12.37;;;;;;;;;;5069934;28;20176;-55
2022/03/25 12:35:03;;;;;;;14.73;11.77;;;;;;;;;;5083470;28;20493;-54
2022/03/25 12:37:42;;;;;;;17.47;12.57;;;;;;;;;;5080626;28;20187;-54
2022/03/25 12:40:19;;;;;;;20.03;13.33;;;;;;;;;;5088134;28;20192;-55
2022/03/25 12:42:49;;;;;;;18.83;12.27;;;;;;;;;;5079228;28;20736;-54
2022/03/25 12:45:15;;;;;;;19.73;13.17;;;;;;;;;;5108629;28;20177;-54
2022/03/25 12:47:46;;;;;;;16.43;12.80;;;;;;;;;;5094621;28;20214;-54
2022/03/25 12:50:17;;;;;;;18.20;12.20;;;;;;;;;;5061934;28;20189;-55
2022/03/25 12:52:43;;;;;;;17.43;13.23;;;;;;;;;;5068780;28;20703;-54
2022/03/25 12:55:15;;;;;;;17.37;14.30;;;;;;;;;;5071956;28;20214;-55
2022/03/25 12:57:41;;;;;;;19.00;14.30;;;;;;;;;;5084639;28;20689;-55
2022/03/25 13:00:09;;;;;;;20.07;14.00;;;;;;;;;;5073282;28;20203;-54
2022/03/25 13:02:37;;;;;;;18.43;12.73;;;;;;;;;;5091441;28;20185;-55
2022/03/25 13:05:16;;;;;;;19.20;13.50;;;;;;;;;;5072630;28;20732;-55
2022/03/25 13:07:58;;;;;;;22.93;16.20;;;;;;;;;;5086052;28;20315;-54
2022/03/25 13:10:25;;;;;;;16.67;13.40;;;;;;;;;;5087847;28;20590;-55
2022/03/25 13:12:52;;;;;;;15.17;12.63;;;;;;;;;;5069014;28;20658;-54
2022/03/25 13:15:23;;;;;;;17.00;13.80;;;;;;;;;;5088448;28;20266;-55
2022/03/25 13:17:51;;;;;;;23.43;12.40;;;;;;;;;;5086159;28;20270;-55
2022/03/25 13:20:18;;;;;;;19.80;14.03;;;;;;;;;;5073678;28;20233;-54
2022/03/25 13:23:02;;;;;;;19.47;14.37;;;;;;;;;;5056227;28;20180;-56
2022/03/25 13:25:38;;;;;;;19.00;12.37;;;;;;;;;;5071294;28;20170;-56
2022/03/25 13:28:09;;;;;;;15.80;13.10;;;;;;;;;;5080933;28;20508;-55
2022/03/25 13:30:36;;;;;;;18.37;13.13;;;;;;;;;;5087924;28;20179;-58
2022/03/25 13:33:03;;;;;;;19.27;14.03;;;;;;;;;;5063972;28;20204;-56
2022/03/25 13:35:30;;;;;;;19.27;15.03;;;;;;;;;;5069640;28;20239;-57
2022/03/25 13:38:01;;;;;;;18.07;14.00;;;;;;;;;;5087244;28;20171;-58
2022/03/25 13:40:27;;;;;;;26.00;16.77;;;;;;;;;;5086970;28;20218;-61
2022/03/25 13:42:55;;;;;;;17.73;14.00;;;;;;;;;;5065337;28;20562;-60
2022/03/25 13:45:21;;;;;;;22.50;17.20;;;;;;;;;;5064432;28;20191;-61
2022/03/25 13:48:04;;;;;;;21.50;17.67;;;;;;;;;;5059835;28;20527;-61
2022/03/25 13:50:31;;;;;;;21.10;17.30;;;;;;;;;;5064825;28;20658;-61
2022/03/25 13:52:59;;;;;;;37.53;21.13;;;;;;;;;;5088140;28;20182;-60
2022/03/25 13:55:34;;;;;;;30.43;20.67;;;;;;;;;;5069871;28;20797;-63
2022/03/25 13:58:01;;;;;;;34.73;21.03;;;;;;;;;;5070880;28;20199;-62
2022/03/25 14:00:31;;;;;;;24.93;17.80;;;;;;;;;;5088019;28;20173;-62
2022/03/25 14:02:59;;;;;;;25.27;18.67;;;;;;;;;;5082686;28;20403;-62
2022/03/25 14:05:25;;;;;;;24.27;19.20;;;;;;;;;;5082365;28;20192;-62
2022/03/25 14:07:53;;;;;;;24.23;18.80;;;;;;;;;;5065922;28;20210;-62
2022/03/25 14:10:19;;;;;;;25.63;18.27;;;;;;;;;;5097681;28;20866;-63
2022/03/25 14:12:54;;;;;;;23.10;17.40;;;;;;;;;;5070168;28;20179;-63
2022/03/25 14:15:24;;;;;;;27.80;18.27;;;;;;;;;;5053591;28;20223;-59
2022/03/25 14:17:52;;;;;;;22.13;17.87;;;;;;;;;;5068907;28;20233;-59
2022/03/25 14:20:19;;;;;;;22.50;18.13;;;;;;;;;;5050771;28;20173;-60
2022/03/25 14:22:50;;;;;;;22.37;17.17;;;;;;;;;;5060559;28;20184;-59
2022/03/25 14:25:18;;;;;;;22.27;17.90;;;;;;;;;;5064021;28;20643;-58
2022/03/25 14:27:45;;;;;;;22.83;16.70;;;;;;;;;;5065530;28;20195;-58